createdAt,value
2018-11-03T00:00:29.034Z,93.63
2018-11-03T00:02:58.705Z,93.76
2018-11-03T00:05:30.948Z,93.66
2018-11-03T00:08:00.378Z,93.37
2018-11-03T00:10:29.994Z,93.24
2018-11-03T00:12:59.402Z,93.68
2018-11-03T00:15:28.810Z,93.52
2018-11-03T00:17:58.294Z,93.99
2018-11-03T00:20:28.221Z,94.34
2018-11-03T00:22:57.652Z,93.88
2018-11-03T00:25:27.181Z,93.93
2018-11-03T00:27:56.647Z,94.52
2018-11-03T00:30:26.137Z,94.55
2018-11-03T00:32:55.619Z,96.68
2018-11-03T00:35:25.194Z,95.64
2018-11-03T00:37:54.734Z,94.94
2018-11-03T00:40:24.142Z,94.01
2018-11-03T00:42:53.599Z,94.29
2018-11-03T00:45:22.980Z,93.92
2018-11-03T00:47:52.486Z,94.51
2018-11-03T00:50:22.078Z,93.75
2018-11-03T00:52:51.597Z,94.69
2018-11-03T00:55:21.104Z,94.57
2018-11-03T00:57:50.534Z,93.87
2018-11-03T01:00:20.131Z,94.09
2018-11-03T01:02:50.378Z,94.30
2018-11-03T01:05:19.886Z,94.81
2018-11-03T01:07:49.379Z,94.75
2018-11-03T01:10:18.974Z,94.99
2018-11-03T01:12:48.883Z,94.54
2018-11-03T01:15:18.894Z,94.80
2018-11-03T01:17:48.365Z,94.78
2018-11-03T01:20:18.395Z,94.94
2018-11-03T01:22:48.495Z,94.83
2018-11-03T01:25:17.959Z,94.22
2018-11-03T01:27:47.438Z,94.27
2018-11-03T01:30:17.631Z,94.23
2018-11-03T01:32:47.077Z,94.32
2018-11-03T01:35:17.304Z,94.32
2018-11-03T01:37:46.739Z,93.78
2018-11-03T01:40:16.175Z,93.62
2018-11-03T01:42:45.594Z,93.82
2018-11-03T01:45:15.043Z,93.52
2018-11-03T01:47:44.498Z,94.04
2018-11-03T01:50:13.911Z,94.04
2018-11-03T01:52:43.624Z,94.19
2018-11-03T01:55:13.065Z,95.13
2018-11-03T01:57:42.478Z,94.92
2018-11-03T02:00:12.244Z,94.11
2018-11-03T02:02:42.373Z,94.50
2018-11-03T02:05:11.855Z,94.41
2018-11-03T02:07:41.531Z,95.13
2018-11-03T02:10:12.682Z,94.43
2018-11-03T02:12:43.225Z,94.87
2018-11-03T02:15:12.692Z,95.57
2018-11-03T02:17:42.106Z,94.56
2018-11-03T02:20:12.031Z,95.25
2018-11-03T02:22:41.628Z,94.71
2018-11-03T02:25:11.119Z,94.73
2018-11-03T02:27:40.736Z,95.72
2018-11-03T02:30:11.654Z,94.87
2018-11-03T02:32:41.579Z,95.00
2018-11-03T02:35:11.946Z,94.67
2018-11-03T02:37:41.957Z,94.35
2018-11-03T02:40:13.084Z,94.88
2018-11-03T02:42:43.107Z,94.67
2018-11-03T02:45:12.759Z,95.28
2018-11-03T02:47:43.233Z,95.24
2018-11-03T02:50:13.998Z,95.82
2018-11-03T02:52:43.754Z,96.08
2018-11-03T02:55:13.219Z,95.85
2018-11-03T02:57:42.988Z,96.25
2018-11-03T03:00:12.627Z,96.55
2018-11-03T03:02:42.103Z,96.20
2018-11-03T03:05:11.895Z,96.50
2018-11-03T03:07:41.546Z,96.81
2018-11-03T03:10:12.619Z,97.15
2018-11-03T03:12:42.207Z,97.19
2018-11-03T03:15:12.822Z,96.72
2018-11-03T03:17:42.677Z,96.91
2018-11-03T03:20:13.051Z,97.23
2018-11-03T03:22:42.761Z,97.10
2018-11-03T03:25:12.650Z,96.88
2018-11-03T03:27:42.008Z,97.00
2018-11-03T03:30:11.853Z,96.86
2018-11-03T03:32:41.849Z,97.07
2018-11-03T03:35:11.542Z,96.87
2018-11-03T03:37:40.952Z,96.60
2018-11-03T03:40:10.856Z,96.26
2018-11-03T03:42:40.551Z,96.78
2018-11-03T03:45:10.767Z,97.15
2018-11-03T03:47:40.281Z,97.13
2018-11-03T03:50:11.129Z,97.82
2018-11-03T03:52:40.521Z,97.81
2018-11-03T03:55:10.174Z,97.76
2018-11-03T03:57:39.741Z,97.80
2018-11-03T04:00:11.332Z,98.06
2018-11-03T04:02:41.116Z,97.90
2018-11-03T04:05:10.754Z,98.41
2018-11-03T04:07:40.266Z,97.99
2018-11-03T04:10:10.483Z,98.41
2018-11-03T04:12:40.075Z,100.00
2018-11-03T04:15:09.806Z,99.50
2018-11-03T04:17:39.421Z,99.36
2018-11-03T04:20:09.208Z,98.98
2018-11-03T04:22:38.690Z,99.18
2018-11-03T04:25:08.134Z,98.98
2018-11-03T04:27:37.619Z,98.69
2018-11-03T04:30:10.636Z,99.02
2018-11-03T04:32:40.612Z,98.72
2018-11-03T04:35:10.897Z,99.46
2018-11-03T04:37:41.104Z,99.64
2018-11-03T04:40:12.027Z,99.91
2018-11-03T04:42:42.151Z,99.83
2018-11-03T04:45:12.328Z,99.56
2018-11-03T04:47:41.745Z,99.56
2018-11-03T04:50:12.208Z,99.35
2018-11-03T04:52:41.670Z,99.76
2018-11-03T04:55:11.663Z,99.60
2018-11-03T04:57:41.613Z,100.00
2018-11-03T05:00:11.570Z,99.99
2018-11-03T05:02:41.270Z,99.88
2018-11-03T05:05:10.732Z,100.00
2018-11-03T05:07:40.149Z,100.00
2018-11-03T05:10:10.197Z,100.00
2018-11-03T05:12:39.687Z,100.00
2018-11-03T05:15:09.224Z,100.00
2018-11-03T05:17:38.622Z,100.00
2018-11-03T05:20:08.077Z,100.00
2018-11-03T05:22:37.635Z,100.00
2018-11-03T05:25:07.206Z,100.00
2018-11-03T05:27:36.614Z,100.00
2018-11-03T05:30:06.730Z,100.00
2018-11-03T05:32:36.174Z,100.00
2018-11-03T05:35:06.763Z,100.00
2018-11-03T05:37:36.437Z,100.00
2018-11-03T05:40:06.268Z,100.00
2018-11-03T05:42:35.691Z,100.00
2018-11-03T05:45:05.288Z,100.00
2018-11-03T05:47:35.035Z,100.00
2018-11-03T05:50:04.451Z,100.00
2018-11-03T05:52:33.865Z,100.00
2018-11-03T05:55:03.424Z,100.00
2018-11-03T05:57:32.936Z,100.00
2018-11-03T06:00:02.391Z,100.00
2018-11-03T06:02:31.852Z,100.00
2018-11-03T06:05:01.349Z,100.00
2018-11-03T06:07:30.758Z,100.00
2018-11-03T06:10:00.185Z,100.00
2018-11-03T06:12:29.633Z,99.98
2018-11-03T06:14:59.087Z,100.00
2018-11-03T06:17:28.491Z,100.00
2018-11-03T06:19:57.992Z,100.00
2018-11-03T06:22:27.440Z,99.97
2018-11-03T06:24:56.901Z,99.92
2018-11-03T06:27:26.371Z,99.99
2018-11-03T06:29:55.779Z,99.92
2018-11-03T06:32:25.821Z,99.67
2018-11-03T06:34:55.232Z,100.00
2018-11-03T06:37:24.740Z,99.73
2018-11-03T06:39:54.133Z,99.18
2018-11-03T06:42:23.581Z,99.36
2018-11-03T06:44:52.951Z,98.77
2018-11-03T06:47:22.524Z,99.85
2018-11-03T06:49:52.440Z,99.58
2018-11-03T06:52:21.879Z,99.40
2018-11-03T06:54:51.273Z,98.83
2018-11-03T06:57:20.667Z,98.46
2018-11-03T06:59:50.802Z,99.11
2018-11-03T07:02:20.183Z,97.41
2018-11-03T07:04:49.605Z,96.71
2018-11-03T07:07:19.051Z,95.60
2018-11-03T07:09:48.516Z,94.23
2018-11-03T07:12:18.073Z,93.04
2018-11-03T07:14:47.395Z,93.09
2018-11-03T07:17:17.268Z,90.74
2018-11-03T07:19:46.716Z,90.78
2018-11-03T07:22:16.138Z,89.53
2018-11-03T07:24:45.583Z,86.96
2018-11-03T07:27:15.008Z,84.85
2018-11-03T07:29:44.519Z,82.93
2018-11-03T07:32:13.855Z,82.97
2018-11-03T07:34:43.268Z,81.58
2018-11-03T07:37:12.679Z,81.26
2018-11-03T07:39:42.081Z,79.91
2018-11-03T07:42:11.490Z,78.12
2018-11-03T07:44:41.120Z,78.10
2018-11-03T07:47:10.607Z,78.61
2018-11-03T07:49:39.987Z,78.29
2018-11-03T07:52:09.504Z,77.91
2018-11-03T07:54:38.926Z,79.62
2018-11-03T07:57:08.431Z,79.26
2018-11-03T07:59:38.846Z,78.86
2018-11-03T08:02:08.583Z,81.04
2018-11-03T08:04:38.031Z,81.58
2018-11-03T08:07:07.791Z,82.65
2018-11-03T08:09:37.194Z,83.58
2018-11-03T08:12:06.636Z,83.54
2018-11-03T08:14:36.040Z,82.37
2018-11-03T08:17:05.698Z,83.05
2018-11-03T08:19:35.166Z,84.20
2018-11-03T08:22:04.735Z,84.32
2018-11-03T08:24:34.218Z,84.61
2018-11-03T08:27:04.554Z,85.11
2018-11-03T08:29:34.138Z,84.09
2018-11-03T08:32:03.845Z,84.25
2018-11-03T08:34:33.248Z,83.76
2018-11-03T08:37:02.724Z,84.07
2018-11-03T08:39:32.168Z,81.73
2018-11-03T08:42:01.580Z,82.19
2018-11-03T08:44:30.985Z,79.69
2018-11-03T08:47:00.582Z,79.05
2018-11-03T08:49:30.030Z,78.75
2018-11-03T08:51:59.775Z,77.06
2018-11-03T08:54:29.223Z,75.12
2018-11-03T08:56:58.882Z,77.06
2018-11-03T08:59:29.231Z,75.87
2018-11-03T09:01:58.648Z,75.17
2018-11-03T09:04:28.059Z,76.38
2018-11-03T09:06:57.682Z,73.92
2018-11-03T09:09:27.073Z,74.29
2018-11-03T09:11:56.511Z,71.27
2018-11-03T09:14:25.918Z,71.94
2018-11-03T09:16:55.847Z,70.59
2018-11-03T09:19:25.750Z,70.49
2018-11-03T09:21:55.284Z,71.42
2018-11-03T09:24:24.563Z,70.02
2018-11-03T09:31:56.140Z,71.21
2018-11-03T09:34:25.593Z,67.75
2018-11-03T09:36:55.167Z,67.69
2018-11-03T09:39:24.748Z,64.93
2018-11-03T09:41:54.150Z,64.19
2018-11-03T09:44:23.610Z,66.59
2018-11-03T09:46:53.114Z,65.38
2018-11-03T09:49:22.554Z,64.77
2018-11-03T09:51:52.171Z,65.60
2018-11-03T09:54:21.631Z,63.74
2018-11-03T09:56:51.684Z,60.69
2018-11-03T09:59:21.089Z,63.90
2018-11-03T10:01:50.595Z,65.55
2018-11-03T10:04:20.008Z,65.55
2018-11-03T10:06:49.783Z,64.03
2018-11-03T10:09:19.175Z,64.61
2018-11-03T10:11:48.680Z,65.97
2018-11-03T10:14:18.124Z,65.41
2018-11-03T10:16:47.634Z,67.43
2018-11-03T10:19:17.134Z,66.29
2018-11-03T10:21:46.797Z,63.93
2018-11-03T10:24:16.264Z,64.69
2018-11-03T10:26:45.799Z,63.41
2018-11-03T10:29:15.267Z,62.52
2018-11-03T10:31:44.772Z,62.38
2018-11-03T10:34:14.355Z,61.11
2018-11-03T10:36:43.892Z,61.05
2018-11-03T10:39:14.025Z,60.46
2018-11-03T10:41:43.645Z,60.61
2018-11-03T10:44:13.328Z,61.16
2018-11-03T10:46:42.956Z,60.58
2018-11-03T10:49:12.717Z,58.15
2018-11-03T10:51:42.152Z,59.75
2018-11-03T10:54:12.149Z,57.27
2018-11-03T10:56:41.607Z,58.52
2018-11-03T10:59:11.080Z,59.50
2018-11-03T11:01:45.681Z,58.86
2018-11-03T11:04:20.437Z,58.13
2018-11-03T11:06:55.146Z,59.75
2018-11-03T11:09:29.756Z,57.37
2018-11-03T11:12:04.619Z,58.53
2018-11-03T11:14:34.135Z,58.60
2018-11-03T11:17:03.835Z,59.86
2018-11-03T11:19:33.427Z,58.16
2018-11-03T11:22:03.040Z,58.96
2018-11-03T11:24:32.965Z,59.30
2018-11-03T11:27:02.524Z,60.22
2018-11-03T11:29:31.985Z,58.09
2018-11-03T11:32:01.387Z,59.26
2018-11-03T11:34:30.833Z,59.02
2018-11-03T11:37:00.623Z,58.90
2018-11-03T11:39:30.175Z,57.75
2018-11-03T11:41:59.648Z,57.95
2018-11-03T11:44:29.243Z,57.87
2018-11-03T11:46:58.746Z,58.71
2018-11-03T11:49:28.321Z,57.08
2018-11-03T11:51:57.912Z,57.16
2018-11-03T11:54:27.573Z,57.07
2018-11-03T11:56:57.065Z,57.42
2018-11-03T11:59:26.679Z,57.17
2018-11-03T12:01:56.411Z,56.52
2018-11-03T12:04:26.071Z,57.92
2018-11-03T12:06:55.661Z,55.78
2018-11-03T12:09:25.235Z,56.36
2018-11-03T12:11:54.724Z,55.96
2018-11-03T12:14:24.404Z,54.89
2018-11-03T12:16:53.900Z,55.69
2018-11-03T12:19:23.343Z,56.08
2018-11-03T12:21:53.071Z,57.33
2018-11-03T12:24:22.504Z,57.07
2018-11-03T12:26:52.496Z,57.33
2018-11-03T12:29:21.968Z,55.83
2018-11-03T12:31:51.408Z,54.66
2018-11-03T12:34:21.132Z,56.19
2018-11-03T12:36:50.698Z,54.59
2018-11-03T12:39:20.231Z,53.85
2018-11-03T12:41:49.727Z,53.13
2018-11-03T12:44:19.288Z,53.77
2018-11-03T12:46:49.164Z,53.52
2018-11-03T12:49:18.580Z,53.43
2018-11-03T12:51:48.036Z,53.97
2018-11-03T12:54:17.764Z,52.86
2018-11-03T12:56:47.267Z,53.89
2018-11-03T12:59:17.067Z,54.30
2018-11-03T13:01:46.609Z,54.52
2018-11-03T13:04:16.159Z,55.36
2018-11-03T13:06:45.705Z,51.47
2018-11-03T13:09:15.146Z,51.80
2018-11-03T13:11:44.957Z,51.69
2018-11-03T13:14:15.462Z,52.23
2018-11-03T13:16:44.899Z,53.84
2018-11-03T13:19:14.312Z,54.20
2018-11-03T13:21:43.810Z,55.34
2018-11-03T13:24:13.256Z,53.26
2018-11-03T13:26:42.737Z,50.25
2018-11-03T13:29:12.155Z,50.36
2018-11-03T13:31:41.569Z,53.08
2018-11-03T13:34:11.155Z,51.41
2018-11-03T13:36:40.954Z,51.50
2018-11-03T13:39:10.950Z,54.02
2018-11-03T13:41:40.355Z,53.35
2018-11-03T13:44:09.776Z,55.18
2018-11-03T13:46:39.188Z,53.97
2018-11-03T13:49:08.731Z,52.21
2018-11-03T13:51:38.167Z,52.44
2018-11-03T13:54:07.602Z,52.88
2018-11-03T13:56:37.094Z,53.03
2018-11-03T13:59:07.860Z,51.68
2018-11-03T14:01:37.775Z,49.97
2018-11-03T14:04:07.321Z,51.73
2018-11-03T14:06:36.747Z,49.44
2018-11-03T14:09:08.128Z,50.94
2018-11-03T14:11:37.523Z,49.84
2018-11-03T14:14:07.215Z,49.19
2018-11-03T14:16:36.836Z,52.86
2018-11-03T14:19:06.480Z,54.43
2018-11-03T14:21:36.118Z,54.89
2018-11-03T14:24:05.960Z,55.13
2018-11-03T14:26:35.355Z,55.92
2018-11-03T14:29:05.725Z,54.17
2018-11-03T14:31:35.274Z,55.05
2018-11-03T14:34:04.981Z,55.44
2018-11-03T14:36:34.504Z,56.02
2018-11-03T14:39:04.442Z,56.82
2018-11-03T14:41:33.897Z,57.21
2018-11-03T14:44:03.293Z,58.15
2018-11-03T14:46:32.759Z,57.14
2018-11-03T14:49:08.831Z,58.04
2018-11-03T14:51:38.355Z,59.06
2018-11-03T14:54:07.783Z,58.78
2018-11-03T14:56:37.267Z,61.34
2018-11-03T14:59:07.077Z,60.39
2018-11-03T15:01:36.733Z,60.15
2018-11-03T15:04:06.740Z,60.41
2018-11-03T15:06:36.283Z,61.00
2018-11-03T15:09:07.863Z,61.75
2018-11-03T15:11:37.940Z,62.22
2018-11-03T15:14:08.771Z,62.72
2018-11-03T15:16:38.387Z,62.41
2018-11-03T15:19:08.387Z,61.85
2018-11-03T15:21:37.803Z,63.17
2018-11-03T15:24:07.307Z,62.02
2018-11-03T15:26:37.003Z,63.18
2018-11-03T15:29:06.515Z,63.22
2018-11-03T15:31:36.267Z,63.74
2018-11-03T15:34:06.151Z,63.49
2018-11-03T15:36:35.786Z,64.44
2018-11-03T15:39:06.422Z,64.57
2018-11-03T15:41:35.983Z,64.87
2018-11-03T15:44:05.684Z,64.71
2018-11-03T15:46:35.283Z,65.79
2018-11-03T15:49:04.971Z,66.33
2018-11-03T15:51:34.746Z,65.84
2018-11-03T15:54:04.499Z,66.38
2018-11-03T15:56:34.063Z,65.84
2018-11-03T15:59:04.004Z,66.81
2018-11-03T16:01:33.595Z,66.59
2018-11-03T16:04:03.424Z,67.43
2018-11-03T16:06:33.263Z,67.37
2018-11-03T16:09:02.995Z,68.30
2018-11-03T16:11:32.856Z,68.66
2018-11-03T16:14:02.667Z,69.00
2018-11-03T16:16:32.462Z,69.12
2018-11-03T16:19:02.092Z,69.86
2018-11-03T16:21:31.679Z,70.44
2018-11-03T16:24:01.258Z,70.88
2018-11-03T16:26:30.971Z,71.00
2018-11-03T16:29:00.503Z,71.91
2018-11-03T16:31:30.562Z,72.83
2018-11-03T16:34:00.897Z,72.93
2018-11-03T16:36:30.329Z,73.84
2018-11-03T16:38:59.764Z,75.11
2018-11-03T16:41:29.212Z,75.25
2018-11-03T16:43:58.670Z,76.00
2018-11-03T16:46:28.051Z,76.24
2018-11-03T16:48:57.520Z,76.24
2018-11-03T16:51:27.375Z,77.38
2018-11-03T16:53:56.832Z,77.68
2018-11-03T16:56:26.605Z,79.02
2018-11-03T16:58:56.066Z,79.88
2018-11-03T17:01:25.454Z,80.80
2018-11-03T17:03:54.884Z,81.06
2018-11-03T17:06:25.158Z,82.27
2018-11-03T17:08:56.445Z,82.50
2018-11-03T17:11:28.069Z,82.39
2018-11-03T17:13:58.513Z,82.84
2018-11-03T17:16:29.281Z,83.40
2018-11-03T17:18:58.828Z,83.79
2018-11-03T17:21:28.278Z,84.07
2018-11-03T17:23:58.182Z,83.71
2018-11-03T17:26:27.992Z,84.01
2018-11-03T17:28:57.424Z,84.88
2018-11-03T17:31:26.888Z,84.39
2018-11-03T17:33:56.343Z,87.92
2018-11-03T17:36:25.864Z,87.12
2018-11-03T17:38:55.243Z,87.39
2018-11-03T17:41:24.689Z,85.87
2018-11-03T17:43:54.734Z,85.53
2018-11-03T17:46:24.640Z,85.73
2018-11-03T17:48:54.070Z,85.85
2018-11-03T17:51:23.483Z,85.86
2018-11-03T17:53:52.898Z,85.51
2018-11-03T17:56:22.350Z,84.00
2018-11-03T17:58:51.741Z,83.59
2018-11-03T18:01:21.438Z,84.04
2018-11-03T18:03:50.618Z,84.33
2018-11-03T18:06:20.073Z,85.07
2018-11-03T18:08:49.462Z,85.78
2018-11-03T18:11:19.114Z,84.55
2018-11-03T18:13:48.539Z,83.70
2018-11-03T18:16:17.940Z,83.64
2018-11-03T18:18:47.481Z,83.32
2018-11-03T18:21:16.968Z,82.61
2018-11-03T18:23:46.589Z,82.99
2018-11-03T18:26:16.155Z,83.01
2018-11-03T18:28:45.679Z,82.64
2018-11-03T18:31:16.011Z,82.58
2018-11-03T18:33:45.403Z,81.48
2018-11-03T18:36:14.859Z,81.77
2018-11-03T18:38:44.357Z,81.81
2018-11-03T18:41:13.848Z,81.79
2018-11-03T18:43:43.261Z,80.97
2018-11-03T18:46:12.770Z,80.77
2018-11-03T18:48:42.274Z,81.02
2018-11-03T18:51:11.772Z,81.04
2018-11-03T18:53:41.227Z,81.90
2018-11-03T18:56:10.631Z,81.53
2018-11-03T18:58:40.107Z,81.74
2018-11-03T19:01:09.526Z,82.60
2018-11-03T19:03:38.931Z,83.17
2018-11-03T19:06:11.409Z,82.28
2018-11-03T19:08:41.200Z,82.66
2018-11-03T19:11:10.820Z,82.62
2018-11-03T19:13:40.451Z,82.48
2018-11-03T19:16:09.970Z,82.25
2018-11-03T19:18:39.422Z,82.54
2018-11-03T19:21:08.927Z,82.58
2018-11-03T19:23:38.370Z,82.50
2018-11-03T19:26:07.823Z,83.80
2018-11-03T19:28:37.421Z,82.65
2018-11-03T19:31:07.071Z,82.36
2018-11-03T19:33:36.563Z,82.48
2018-11-03T19:36:06.656Z,82.94
2018-11-03T19:38:36.073Z,82.58
2018-11-03T19:41:05.614Z,82.35
2018-11-03T19:43:35.407Z,82.16
2018-11-03T19:46:04.815Z,81.84
2018-11-03T19:48:34.235Z,82.57
2018-11-03T19:51:03.825Z,81.42
2018-11-03T19:53:33.332Z,82.61
2018-11-03T19:56:02.752Z,82.55
2018-11-03T19:58:32.239Z,82.41
2018-11-03T20:01:01.773Z,82.39
2018-11-03T20:03:31.207Z,82.15
2018-11-03T20:06:00.656Z,81.54
2018-11-03T20:08:30.055Z,81.96
2018-11-03T20:10:59.464Z,81.69
2018-11-03T20:13:28.867Z,82.55
2018-11-03T20:15:58.239Z,82.46
2018-11-03T20:18:27.615Z,82.46
2018-11-03T20:20:57.927Z,82.83
2018-11-03T20:23:27.554Z,83.51
2018-11-03T20:25:57.247Z,83.59
2018-11-03T20:28:27.636Z,84.01
2018-11-03T20:30:57.113Z,84.10
2018-11-03T20:33:26.585Z,83.88
2018-11-03T20:35:56.601Z,83.88
2018-11-03T20:38:26.285Z,85.28
2018-11-03T20:40:55.842Z,82.77
2018-11-03T20:43:25.413Z,82.35
2018-11-03T20:45:54.936Z,81.08
2018-11-03T20:48:24.688Z,80.60
2018-11-03T20:51:00.130Z,80.28
2018-11-03T20:53:30.557Z,79.88
2018-11-03T20:56:00.688Z,79.80
2018-11-03T20:58:30.401Z,79.61
2018-11-03T21:01:00.160Z,79.10
2018-11-03T21:03:29.840Z,78.61
2018-11-03T21:05:59.901Z,79.16
2018-11-03T21:08:29.574Z,78.65
2018-11-03T21:10:59.141Z,78.67
2018-11-03T21:13:28.661Z,78.54
2018-11-03T21:15:58.302Z,78.96
2018-11-03T21:18:28.148Z,78.57
2018-11-03T21:20:57.927Z,78.77
2018-11-03T21:23:28.669Z,78.62
2018-11-03T21:25:59.672Z,78.90
2018-11-03T21:28:29.856Z,79.10
2018-11-03T21:31:00.265Z,78.85
2018-11-03T21:33:30.122Z,78.52
2018-11-03T21:36:00.106Z,77.83
2018-11-03T21:38:31.397Z,78.72
2018-11-03T21:41:00.952Z,78.95
2018-11-03T21:43:30.456Z,78.65
2018-11-03T21:46:00.243Z,79.46
2018-11-03T21:48:30.693Z,78.98
2018-11-03T21:51:00.816Z,80.22
2018-11-03T21:53:31.148Z,80.41
2018-11-03T21:56:00.755Z,80.57
2018-11-03T21:58:30.580Z,80.89
2018-11-03T22:01:00.591Z,80.27
2018-11-03T22:03:30.965Z,81.08
2018-11-03T22:06:00.826Z,80.66
2018-11-03T22:08:30.734Z,80.56
2018-11-03T22:11:00.674Z,80.91
2018-11-03T22:13:30.357Z,80.71
2018-11-03T22:16:00.231Z,80.51
2018-11-03T22:18:30.102Z,81.76
2018-11-03T22:20:59.671Z,81.23
2018-11-03T22:23:29.260Z,81.03
2018-11-03T22:25:59.089Z,80.83
2018-11-03T22:28:28.738Z,80.98
2018-11-03T22:30:58.248Z,81.42
2018-11-03T22:33:27.907Z,81.91
2018-11-03T22:35:58.193Z,81.39
2018-11-03T22:38:27.899Z,81.72
2018-11-03T22:40:57.595Z,82.24
2018-11-03T22:43:27.217Z,82.35
2018-11-03T22:45:56.911Z,82.14
2018-11-03T22:48:26.665Z,82.68
2018-11-03T22:50:56.969Z,84.07
2018-11-03T22:53:27.276Z,82.97
2018-11-03T22:55:57.338Z,83.13
2018-11-03T22:58:27.145Z,82.93
2018-11-03T23:00:57.919Z,83.24
2018-11-03T23:03:28.238Z,83.84
2018-11-03T23:05:58.057Z,84.19
2018-11-03T23:08:27.886Z,84.49
2018-11-03T23:10:58.157Z,84.55
2018-11-03T23:13:27.962Z,85.18
2018-11-03T23:15:57.653Z,85.07
2018-11-03T23:18:27.479Z,85.94
2018-11-03T23:20:57.220Z,86.22
2018-11-03T23:23:26.940Z,86.71
2018-11-03T23:25:57.174Z,86.16
2018-11-03T23:28:27.386Z,86.21
2018-11-03T23:30:57.079Z,85.87
2018-11-03T23:33:27.369Z,85.45
2018-11-03T23:35:56.973Z,85.65
2018-11-03T23:38:26.488Z,85.01
2018-11-03T23:40:56.092Z,85.29
2018-11-03T23:43:25.542Z,85.83
2018-11-03T23:45:54.982Z,85.77
2018-11-03T23:48:24.402Z,86.55
2018-11-03T23:50:53.908Z,86.45
2018-11-03T23:53:23.395Z,86.44
2018-11-03T23:55:53.758Z,85.74
2018-11-03T23:58:23.146Z,86.05
